Time;durP1;ratioP1;P1;durP2;ratioP2;P2;SDS_P1;SDS_P2;PMS_P1;PMS_P2;Temp;Humidity;BMP_temperature;BMP_pressure;BME280_temperature;BME280_humidity;BME280_pressure;Samples;Min_cycle;Max_cycle;Signal;HPM_P1;HPM_P2
2022/07/12 10:36:07;;;;;;;10.48;9.80;;;29.40;96.60;;;;;;4955818;28;20685;-82
2022/07/12 10:38:35;;;;;;;10.25;9.55;;;29.50;96.70;;;;;;4943932;28;20046;-82
2022/07/12 10:41:24;;;;;;;9.95;9.45;;;29.10;97.50;;;;;;4943665;28;20480;-81
2022/07/12 10:56:15;;;;;;;10.10;9.40;;;29.00;97.00;;;;;;5909505;23;20026;31
2022/07/12 10:58:53;;;;;;;10.38;9.90;;;29.20;97.20;;;;;;4864849;29;20108;-93
2022/07/12 11:01:24;;;;;;;10.45;9.95;;;29.30;97.70;;;;;;4865960;29;20124;-93
2022/07/12 11:04:06;;;;;;;11.38;10.30;;;29.00;97.60;;;;;;4864993;29;20036;-94
2022/07/12 11:06:39;;;;;;;10.57;10.00;;;28.90;97.40;;;;;;4866671;29;20037;-94
2022/07/12 11:09:09;;;;;;;10.98;10.20;;;29.20;97.10;;;;;;4866248;29;20029;-92
2022/07/12 11:11:44;;;;;;;10.45;9.85;;;29.30;97.50;;;;;;4865971;29;20033;-93
2022/07/12 11:14:12;;;;;;;10.45;9.65;;;29.00;97.70;;;;;;4865469;29;20049;-92
2022/07/12 11:16:47;;;;;;;9.90;9.40;;;28.90;98.60;;;;;;4865439;29;20025;-93
2022/07/12 11:19:14;;;;;;;9.98;9.43;;;29.10;98.10;;;;;;4865532;29;20040;-92
2022/07/12 11:21:45;;;;;;;10.40;9.73;;;29.20;98.80;;;;;;4865484;29;20044;-93
2022/07/12 11:24:19;;;;;;;10.32;9.80;;;29.10;98.60;;;;;;4865854;29;20025;-92
2022/07/12 11:26:48;;;;;;;11.85;10.82;;;29.20;99.10;;;;;;4865310;29;20033;-92
2022/07/12 11:29:15;;;;;;;10.73;10.02;;;29.10;98.60;;;;;;4866666;29;20033;-93
2022/07/12 11:31:41;;;;;;;10.82;10.30;;;28.80;99.00;;;;;;4865804;29;20045;-93
2022/07/12 11:34:26;;;;;;;10.73;10.13;;;28.70;99.50;;;;;;4865673;29;20124;-92
2022/07/12 11:36:59;;;;;;;;;;;28.80;99.20;;;;;;4867131;29;20037;-93
2022/07/12 11:39:38;;;;;;;10.35;9.80;;;29.00;97.90;;;;;;4865136;29;19946;-92
2022/07/12 11:42:06;;;;;;;10.43;9.88;;;29.10;98.10;;;;;;4865207;29;20030;-91
2022/07/12 11:44:43;;;;;;;10.73;10.02;;;29.20;98.70;;;;;;4865253;29;20025;-93
2022/07/12 11:47:09;;;;;;;11.45;10.50;;;29.30;99.00;;;;;;4865017;29;20033;-92
2022/07/12 11:49:36;;;;;;;10.50;9.90;;;29.10;99.20;;;;;;4866468;29;20025;-93
2022/07/12 11:52:05;;;;;;;10.45;9.85;;;29.00;99.60;;;;;;4865255;29;20116;-92
2022/07/12 11:54:32;;;;;;;10.63;10.00;;;28.70;98.90;;;;;;4864937;29;20069;-93
2022/07/12 11:57:07;;;;;;;10.35;9.85;;;28.60;98.90;;;;;;4864844;29;20049;-93
2022/07/12 11:59:33;;;;;;;10.80;10.10;;;28.40;98.80;;;;;;4865113;29;20051;-94
2022/07/12 12:02:19;;;;;;;10.35;9.77;;;28.40;99.20;;;;;;4868387;29;20023;-93
2022/07/12 12:04:47;;;;;;;10.70;10.00;;;28.60;99.50;;;;;;4854394;29;20121;-93
2022/07/12 12:07:21;;;;;;;10.20;9.70;;;28.90;99.10;;;;;;4869135;29;20108;-94
2022/07/12 12:10:17;;;;;;;10.57;9.90;;;29.00;99.00;;;;;;4868697;29;20062;-94
2022/07/12 12:12:56;;;;;;;9.80;9.30;;;28.80;98.80;;;;;;4887947;23;20022;-94
2022/07/12 12:15:33;;;;;;;9.80;9.30;;;28.80;98.90;;;;;;4932393;29;20067;-94
2022/07/12 12:18:02;;;;;;;10.23;9.60;;;29.10;99.10;;;;;;4924824;29;20038;-93
2022/07/12 12:20:35;;;;;;;10.20;9.60;;;29.40;98.50;;;;;;4924730;29;20027;-94
2022/07/12 12:23:03;;;;;;;10.48;9.77;;;29.30;98.60;;;;;;4924989;29;20031;-94
2022/07/12 12:25:32;;;;;;;10.13;9.63;;;29.20;98.60;;;;;;4924771;29;20047;-92
2022/07/12 12:28:03;;;;;;;10.10;9.65;;;29.00;98.80;;;;;;4924461;29;20038;-93
2022/07/12 12:30:36;;;;;;;10.65;9.95;;;29.00;98.60;;;;;;4926765;29;20023;-94
2022/07/12 12:33:08;;;;;;;10.40;9.80;;;29.30;98.20;;;;;;4927658;29;20035;-94
2022/07/12 12:35:38;;;;;;;10.20;9.65;;;29.10;98.60;;;;;;4933811;28;20134;-95
2022/07/12 12:38:16;;;;;;;10.45;9.90;;;29.10;98.70;;;;;;4947936;29;20034;-95
2022/07/12 12:41:16;;;;;;;10.93;10.30;;;29.10;98.10;;;;;;4931152;29;20122;-94
2022/07/12 12:44:15;;;;;;;10.52;10.02;;;28.50;98.10;;;;;;4925373;29;20031;-95
2022/07/12 12:46:53;;;;;;;10.98;10.48;;;28.70;98.30;;;;;;5054409;23;20918;-94
2022/07/12 12:49:19;;;;;;;10.48;9.98;;;28.60;97.10;;;;;;4961976;28;20030;-94
2022/07/12 12:51:58;;;;;;;10.60;10.00;;;28.50;97.80;;;;;;4962265;28;20403;-94
2022/07/12 12:54:38;;;;;;;10.98;10.32;;;28.70;98.30;;;;;;4962760;28;20088;-94
2022/07/12 12:57:40;;;;;;;10.15;9.75;;;28.80;98.90;;;;;;4961390;28;20034;-95
2022/07/12 13:00:20;;;;;;;10.60;9.85;;;29.10;99.00;;;;;;4939026;23;20480;-94
2022/07/12 13:02:48;;;;;;;10.68;9.98;;;29.10;98.60;;;;;;4958568;28;20056;-93
2022/07/12 13:05:15;;;;;;;10.95;10.10;;;28.90;98.80;;;;;;4959041;28;20388;-93
2022/07/12 13:07:41;;;;;;;10.27;9.77;;;28.70;99.00;;;;;;4955999;29;20551;-92
2022/07/12 13:10:08;;;;;;;10.25;9.70;;;28.70;98.80;;;;;;4971763;28;20027;-94
2022/07/12 13:12:34;;;;;;;10.65;10.05;;;28.80;98.80;;;;;;4972413;28;20039;-93
2022/07/12 13:15:01;;;;;;;10.65;9.98;;;29.00;99.30;;;;;;4974049;28;20381;-95
2022/07/12 13:17:31;;;;;;;10.38;9.70;;;28.90;99.30;;;;;;4975818;28;20031;-94
2022/07/12 13:20:25;;;;;;;10.70;10.10;;;28.90;99.50;;;;;;4976933;28;20110;-93
2022/07/12 13:23:16;;;;;;;11.02;10.00;;;28.70;98.80;;;;;;4943851;29;20024;-94
2022/07/12 13:25:52;;;;;;;;;;;;;;;;;;;;;
2022/07/12 13:28:48;;;;;;;10.32;9.73;;;28.80;99.20;;;;;;4883696;29;20029;-93
2022/07/12 13:31:15;;;;;;;10.23;9.70;;;28.60;99.70;;;;;;4871514;29;20131;-92
2022/07/12 13:33:41;;;;;;;10.52;9.90;;;28.50;99.90;;;;;;4870449;29;20113;-93
2022/07/12 13:36:08;;;;;;;10.30;9.70;;;28.60;99.90;;;;;;4868112;29;20594;-92
2022/07/12 13:38:34;;;;;;;10.68;9.60;;;28.60;99.80;;;;;;4868232;29;20029;-93
2022/07/12 13:41:00;;;;;;;10.13;9.60;;;28.50;99.90;;;;;;4866781;29;20101;-92
2022/07/12 13:43:27;;;;;;;10.20;9.70;;;28.70;99.90;;;;;;4866557;29;20579;-92
2022/07/12 13:45:53;;;;;;;10.27;9.77;;;28.80;99.90;;;;;;4882207;29;20029;-93
2022/07/12 13:48:19;;;;;;;10.82;10.05;;;28.90;99.90;;;;;;4869325;29;20136;-93
2022/07/12 13:50:47;;;;;;;10.65;10.15;;;29.10;99.50;;;;;;4869438;29;20075;-92
2022/07/12 13:53:14;;;;;;;10.45;9.52;;;29.10;99.70;;;;;;4873327;29;20145;-92
2022/07/12 13:55:45;;;;;;;10.50;9.70;;;28.70;99.90;;;;;;4872775;29;20501;-92
2022/07/12 13:58:15;;;;;;;10.57;9.98;;;28.50;99.90;;;;;;4869311;29;20036;-92
2022/07/12 14:00:42;;;;;;;10.43;9.68;;;28.60;99.90;;;;;;4867193;29;20499;-91
2022/07/12 14:03:14;;;;;;;10.20;9.70;;;28.60;99.90;;;;;;4934973;29;20035;-92
2022/07/12 14:05:57;;;;;;;9.98;9.40;;;28.80;99.60;;;;;;4974330;28;20046;-93
2022/07/12 14:08:27;;;;;;;9.73;9.20;;;29.00;99.70;;;;;;4981034;28;20086;-93
2022/07/12 14:10:56;;;;;;;9.65;9.07;;;28.90;99.90;;;;;;4979146;28;20031;-94
2022/07/12 14:13:28;;;;;;;9.50;8.98;;;28.70;99.90;;;;;;4974081;28;20493;-93
2022/07/12 14:16:06;;;;;;;10.25;9.55;;;28.70;99.90;;;;;;4974627;28;20028;-92
2022/07/12 14:18:54;;;;;;;10.18;9.48;;;28.80;99.90;;;;;;4979045;28;20058;-92
2022/07/12 14:21:32;;;;;;;10.15;9.43;;;28.50;99.90;;;;;;4975327;28;20031;-92
2022/07/12 14:24:20;;;;;;;9.70;9.20;;;28.50;99.90;;;;;;4981411;28;20065;-92
2022/07/12 14:40:44;;;;;;;10.15;9.40;;;28.60;99.90;;;;;;5185094;23;20055;-92
2022/07/12 14:43:59;;;;;;;10.27;9.57;;;28.60;99.90;;;;;;4956259;28;20038;-93
2022/07/12 14:47:14;;;;;;;11.02;10.32;;;28.50;99.90;;;;;;4973035;28;20054;-93
2022/07/12 14:50:46;;;;;;;10.23;9.30;;;28.20;99.90;;;;;;4974589;28;20046;-93
2022/07/12 14:53:34;;;;;;;9.50;9.10;;;28.40;99.90;;;;;;4984639;28;20178;-92
2022/07/12 14:56:07;;;;;;;10.13;9.30;;;28.50;99.90;;;;;;4984885;28;20031;-92
2022/07/12 15:03:10;;;;;;;9.30;8.80;;;28.40;99.90;;;;;;4956831;23;20077;-92
2022/07/12 15:06:17;;;;;;;9.13;8.73;;;28.30;99.90;;;;;;4927612;29;20496;-96
2022/07/12 15:09:11;;;;;;;;;;;;;;;;;;;;;
2022/07/12 15:12:14;;;;;;;;;;;;;;;;;;;;;
2022/07/12 20:21:50;;;;;;;3.95;1.98;;;24.00;99.90;;;;;;5526319;23;20133;-95
2022/07/12 20:24:26;;;;;;;2.22;1.30;;;24.00;99.90;;;;;;4963233;28;20041;-92
2022/07/12 20:27:04;;;;;;;5.53;1.55;;;23.90;99.90;;;;;;4979666;28;20030;-94
2022/07/12 20:38:09;;;;;;;3.88;1.38;;;23.80;99.90;;;;;;5369199;23;20054;-94
2022/07/12 20:40:36;;;;;;;4.15;1.40;;;23.80;99.90;;;;;;4981088;28;20030;-93
2022/07/12 20:43:03;;;;;;;4.60;1.42;;;23.80;99.90;;;;;;4963664;28;20450;-92
2022/07/12 20:45:31;;;;;;;3.63;1.15;;;23.80;99.90;;;;;;4981594;28;20415;-93
2022/07/12 20:47:58;;;;;;;2.35;2.00;;;23.80;99.90;;;;;;4965761;28;20033;-92
2022/07/12 20:50:25;;;;;;;4.28;1.60;;;23.70;99.90;;;;;;4966809;28;20027;-91
2022/07/12 20:52:51;;;;;;;1.90;1.52;;;23.70;99.90;;;;;;4991309;28;20125;-91
2022/07/12 20:55:18;;;;;;;3.50;1.52;;;23.60;99.90;;;;;;5000660;28;20069;-94
2022/07/12 20:57:45;;;;;;;3.83;1.42;;;23.60;99.90;;;;;;4983092;28;20026;-92
2022/07/12 21:00:13;;;;;;;6.03;1.63;;;23.50;99.90;;;;;;4963159;28;20113;-93
2022/07/12 21:02:42;;;;;;;4.88;1.48;;;23.60;99.90;;;;;;4979385;28;20033;-93
2022/07/12 21:05:10;;;;;;;4.70;1.65;;;23.50;99.90;;;;;;4963378;28;20045;-93
2022/07/12 21:07:37;;;;;;;3.85;1.25;;;23.40;99.90;;;;;;4978843;28;20480;-92
2022/07/12 21:10:05;;;;;;;4.60;1.42;;;23.30;99.90;;;;;;4978817;28;20416;-90
2022/07/12 21:12:32;;;;;;;2.55;1.25;;;23.20;99.90;;;;;;4978540;28;20018;-94
2022/07/12 21:14:58;;;;;;;3.53;1.30;;;23.20;99.90;;;;;;4963094;28;20031;-90
2022/07/12 21:17:25;;;;;;;2.10;1.48;;;23.10;99.90;;;;;;4993171;28;20026;-92
2022/07/12 21:19:52;;;;;;;5.07;1.70;;;23.10;99.90;;;;;;4986106;28;20058;-91
2022/07/12 21:22:19;;;;;;;5.53;1.77;;;23.10;99.90;;;;;;4968360;28;20033;-92
2022/07/12 21:24:48;;;;;;;3.78;1.60;;;23.20;99.90;;;;;;4968127;28;20037;-94
2022/07/12 21:27:15;;;;;;;3.35;1.40;;;23.20;99.90;;;;;;4953309;28;20034;-93
2022/07/12 21:29:42;;;;;;;3.08;1.60;;;23.20;99.90;;;;;;4970870;28;20034;-93
2022/07/12 21:32:08;;;;;;;1.90;1.42;;;23.20;99.90;;;;;;4969047;28;20030;-94
2022/07/12 21:34:35;;;;;;;2.60;1.73;;;23.20;99.90;;;;;;4963885;28;20046;-93
2022/07/12 21:37:02;;;;;;;3.65;1.38;;;23.20;99.90;;;;;;4989722;28;20050;-93
2022/07/12 21:39:30;;;;;;;4.85;1.40;;;23.20;99.90;;;;;;4971885;28;20042;-92
2022/07/12 21:41:57;;;;;;;2.83;1.42;;;23.20;99.90;;;;;;4964663;29;20031;-91
2022/07/12 21:44:24;;;;;;;5.53;1.55;;;23.10;99.90;;;;;;4907709;29;20048;-92
2022/07/12 21:46:52;;;;;;;2.30;1.52;;;23.10;99.90;;;;;;4909455;29;20076;-92
2022/07/12 21:49:22;;;;;;;3.00;1.17;;;23.10;99.90;;;;;;4895622;29;20045;-93
2022/07/12 21:51:51;;;;;;;4.75;1.73;;;23.10;99.90;;;;;;4893982;29;20045;-93
2022/07/12 21:54:18;;;;;;;4.18;1.52;;;23.10;99.90;;;;;;4891501;29;20052;-92
2022/07/12 21:56:45;;;;;;;6.32;1.35;;;23.20;99.90;;;;;;4888856;29;20047;-93
2022/07/12 21:59:11;;;;;;;2.70;1.30;;;23.10;99.90;;;;;;4888759;29;20040;-93
2022/07/12 22:01:41;;;;;;;1.88;1.30;;;23.10;99.90;;;;;;4886433;29;20104;-94
2022/07/12 22:04:07;;;;;;;2.20;1.00;;;23.10;99.90;;;;;;4895912;29;20032;-93
2022/07/12 22:06:35;;;;;;;2.55;1.40;;;23.10;99.90;;;;;;4893211;29;20044;-93
2022/07/12 22:09:02;;;;;;;6.57;1.73;;;23.10;99.90;;;;;;4880415;29;20033;-95
2022/07/12 22:11:32;;;;;;;2.60;1.10;;;23.00;99.90;;;;;;4916289;29;20102;-92
2022/07/12 22:14:03;;;;;;;3.75;1.40;;;23.00;99.90;;;;;;4923295;29;20032;-93
2022/07/12 22:16:38;;;;;;;4.43;1.50;;;23.00;99.90;;;;;;4975660;29;20046;-94
2022/07/12 22:19:06;;;;;;;2.13;1.23;;;22.90;99.90;;;;;;4971941;29;20038;-94
2022/07/12 22:21:34;;;;;;;3.13;1.70;;;22.90;99.90;;;;;;4955845;29;20028;-95
2022/07/12 22:24:01;;;;;;;1.88;1.10;;;22.90;99.90;;;;;;4954511;29;20051;-94
2022/07/12 22:26:31;;;;;;;5.00;1.63;;;22.90;99.90;;;;;;4932173;29;20042;-94
2022/07/12 22:31:54;;;;;;;3.70;1.10;;;22.80;99.90;;;;;;5134811;23;20068;-94
2022/07/12 22:34:22;;;;;;;1.95;1.20;;;22.80;99.90;;;;;;4923690;29;20054;-93
2022/07/12 22:36:52;;;;;;;4.78;1.40;;;22.70;99.90;;;;;;4921776;29;20040;-94
2022/07/12 22:39:19;;;;;;;2.03;0.95;;;22.70;99.90;;;;;;4932727;29;20036;-94
2022/07/12 22:41:47;;;;;;;4.32;1.42;;;22.70;99.90;;;;;;4932991;29;20047;-93
2022/07/12 22:44:13;;;;;;;2.17;1.10;;;22.70;99.90;;;;;;4919634;29;20228;-93
2022/07/12 22:46:46;;;;;;;3.30;1.42;;;22.70;99.90;;;;;;4932494;29;20027;-93
2022/07/12 22:49:16;;;;;;;3.92;1.30;;;22.70;99.90;;;;;;4905169;29;20040;-92
2022/07/12 22:51:48;;;;;;;6.07;1.38;;;22.70;99.90;;;;;;4887559;29;20039;-91
2022/07/12 22:54:20;;;;;;;2.65;1.50;;;22.70;99.90;;;;;;4887836;29;20044;-93
2022/07/12 22:56:48;;;;;;;2.85;1.40;;;22.70;99.90;;;;;;4888164;29;20133;-92
2022/07/12 22:59:15;;;;;;;4.57;1.80;;;22.70;99.90;;;;;;4886872;29;20036;-91
2022/07/12 23:01:41;;;;;;;3.10;1.50;;;22.70;99.90;;;;;;4887456;29;20139;-92
2022/07/12 23:04:08;;;;;;;6.32;1.60;;;22.70;99.90;;;;;;4890254;29;20146;-91
2022/07/12 23:06:36;;;;;;;3.05;1.65;;;22.70;99.90;;;;;;4888166;29;20060;-93
2022/07/12 23:09:04;;;;;;;4.88;2.05;;;22.70;99.90;;;;;;4888039;29;20140;-92
2022/07/12 23:11:31;;;;;;;3.05;1.75;;;22.70;99.90;;;;;;4888022;29;20120;-91
2022/07/12 23:14:00;;;;;;;3.10;1.83;;;22.60;99.90;;;;;;4886990;29;20522;-94
2022/07/12 23:16:27;;;;;;;4.47;1.50;;;22.60;99.90;;;;;;4885031;29;20032;-93
2022/07/12 23:18:54;;;;;;;4.30;1.50;;;22.50;99.90;;;;;;4932311;28;20046;-94
2022/07/12 23:21:20;;;;;;;2.40;1.70;;;22.50;99.90;;;;;;4960675;28;20098;-90
2022/07/12 23:23:47;;;;;;;2.83;1.52;;;22.50;99.90;;;;;;4963220;28;20066;-91
2022/07/12 23:26:14;;;;;;;8.10;1.73;;;22.40;99.90;;;;;;4979359;28;20030;-92
2022/07/12 23:28:40;;;;;;;4.05;1.65;;;22.40;99.90;;;;;;4964303;28;20062;-92
2022/07/12 23:31:07;;;;;;;3.58;1.90;;;22.30;99.90;;;;;;4965933;28;20100;-93
2022/07/12 23:33:34;;;;;;;4.90;1.40;;;22.30;99.90;;;;;;4969646;28;20081;-92
2022/07/12 23:36:04;;;;;;;6.05;1.60;;;22.20;99.90;;;;;;4965363;28;20400;-91
2022/07/12 23:38:30;;;;;;;3.28;1.50;;;22.30;99.90;;;;;;4967109;28;20101;-91
2022/07/12 23:40:57;;;;;;;5.65;1.60;;;22.30;99.90;;;;;;4969586;28;20022;-92
2022/07/12 23:43:24;;;;;;;2.40;1.50;;;22.40;99.90;;;;;;4970434;28;20034;-93
2022/07/12 23:45:50;;;;;;;5.22;1.80;;;22.40;99.90;;;;;;4968788;28;20027;-93
2022/07/12 23:48:17;;;;;;;5.40;1.45;;;22.40;99.90;;;;;;4966708;28;20034;-93
2022/07/12 23:50:44;;;;;;;4.90;1.80;;;22.50;99.90;;;;;;4968423;28;20036;-93
2022/07/12 23:53:10;;;;;;;2.83;1.30;;;22.50;99.90;;;;;;4966817;28;20030;-95
2022/07/12 23:55:37;;;;;;;4.07;1.50;;;22.50;99.90;;;;;;4967423;28;20035;-93
2022/07/12 23:58:04;;;;;;;4.82;1.60;;;22.50;99.90;;;;;;4984872;28;20118;-91
